Time;durP1;ratioP1;P1;durP2;ratioP2;P2;SDS_P1;SDS_P2;PMS_P1;PMS_P2;Temp;Humidity;BMP_temperature;BMP_pressure;BME280_temperature;BME280_humidity;BME280_pressure;Samples;Min_cycle;Max_cycle;Signal;HPM_P1;HPM_P2
2021/12/22 00:01:57;;;;;;;45.22;21.08;;;-3.50;99.90;;;;;;5068028;28;20474;-75
2021/12/22 00:04:25;;;;;;;38.85;19.13;;;-3.60;99.90;;;;;;5050272;28;20021;-75
2021/12/22 00:06:51;;;;;;;43.63;20.92;;;-3.60;99.90;;;;;;5051430;28;20104;-74
2021/12/22 00:09:17;;;;;;;42.05;19.88;;;-3.50;99.90;;;;;;5043759;28;20033;-74
2021/12/22 00:11:45;;;;;;;43.70;21.45;;;-3.50;99.90;;;;;;5053631;28;20459;-74
2021/12/22 00:14:14;;;;;;;42.15;20.52;;;-3.60;99.90;;;;;;5051684;28;20104;-74
2021/12/22 00:16:40;;;;;;;43.90;20.50;;;-3.60;99.90;;;;;;5044060;28;20386;-75
2021/12/22 00:19:06;;;;;;;42.28;19.23;;;-3.60;99.90;;;;;;5054084;28;20021;-74
2021/12/22 00:21:31;;;;;;;44.30;19.85;;;-3.60;99.90;;;;;;5056304;28;20051;-74
2021/12/22 00:23:57;;;;;;;44.10;20.08;;;-3.70;99.90;;;;;;5054391;28;20044;-74
2021/12/22 00:26:23;;;;;;;43.30;20.30;;;-3.70;99.90;;;;;;5051782;28;20112;-74
2021/12/22 00:28:51;;;;;;;51.85;21.70;;;-3.70;99.90;;;;;;5053956;28;20516;-74
2021/12/22 00:31:26;;;;;;;45.20;20.67;;;-3.70;99.90;;;;;;5052038;28;20071;-74
2021/12/22 00:33:57;;;;;;;44.40;20.15;;;-3.80;99.90;;;;;;5051783;28;20351;-73
2021/12/22 00:36:24;;;;;;;40.55;20.63;;;-3.80;99.90;;;;;;5047858;28;20028;-75
2021/12/22 00:38:51;;;;;;;45.33;20.83;;;-3.90;99.90;;;;;;5055188;28;20021;-74
2021/12/22 00:41:19;;;;;;;46.25;20.55;;;-3.80;99.90;;;;;;5055032;28;20075;-74
2021/12/22 00:43:50;;;;;;;43.95;21.33;;;-3.90;99.90;;;;;;5051891;28;20025;-75
2021/12/22 00:46:16;;;;;;;41.00;19.58;;;-3.90;99.90;;;;;;5049123;28;20029;-75
2021/12/22 00:48:42;;;;;;;40.70;19.35;;;-3.90;99.90;;;;;;5051245;28;20025;-74
2021/12/22 00:51:08;;;;;;;42.70;18.63;;;-3.90;99.90;;;;;;5049026;28;20367;-75
2021/12/22 00:53:34;;;;;;;36.08;17.50;;;-3.90;99.90;;;;;;5053021;28;20306;-74
2021/12/22 00:56:02;;;;;;;38.42;17.60;;;-3.90;99.90;;;;;;5052562;28;20029;-75
2021/12/22 00:58:28;;;;;;;37.83;17.52;;;-3.90;99.90;;;;;;5052978;28;20028;-75
2021/12/22 01:00:53;;;;;;;37.38;18.95;;;-3.90;99.90;;;;;;5040641;28;20025;-75
2021/12/22 01:03:20;;;;;;;41.13;19.17;;;-3.90;99.90;;;;;;5053276;28;20029;-74
2021/12/22 01:05:47;;;;;;;38.95;18.42;;;-4.00;99.90;;;;;;5053588;28;20096;-75
2021/12/22 01:08:21;;;;;;;40.45;18.52;;;-4.00;99.90;;;;;;5056625;28;20108;-74
2021/12/22 01:10:48;;;;;;;39.72;17.77;;;-4.10;99.90;;;;;;5053997;28;20032;-74
2021/12/22 01:13:17;;;;;;;38.20;19.05;;;-4.10;99.90;;;;;;5048484;28;20040;-74
2021/12/22 01:15:43;;;;;;;39.90;18.67;;;-4.00;99.90;;;;;;5063690;28;20071;-74
2021/12/22 01:18:29;;;;;;;34.25;16.80;;;-4.00;99.90;;;;;;5052484;28;20053;-74
2021/12/22 01:23:33;;;;;;;36.30;16.85;;;-4.10;99.90;;;;;;5053616;28;20082;-74
2021/12/22 01:25:59;;;;;;;41.13;18.40;;;-4.10;99.90;;;;;;5044369;28;20013;-74
2021/12/22 01:28:28;;;;;;;33.85;17.63;;;-4.10;99.90;;;;;;5049539;28;20014;-73
2021/12/22 01:30:55;;;;;;;34.53;17.27;;;-4.10;99.90;;;;;;5049901;28;20476;-73
2021/12/22 01:33:21;;;;;;;35.53;16.63;;;-4.10;99.90;;;;;;5047757;28;20021;-74
2021/12/22 01:35:47;;;;;;;30.75;15.50;;;-4.10;99.90;;;;;;5049051;28;20068;-74
2021/12/22 01:38:13;;;;;;;34.05;15.43;;;-4.20;99.90;;;;;;5058504;28;20485;-74
2021/12/22 01:40:42;;;;;;;33.95;16.25;;;-4.20;99.90;;;;;;5047898;28;20021;-75
2021/12/22 01:43:08;;;;;;;34.45;16.17;;;-4.30;99.90;;;;;;5048624;28;20525;-74
2021/12/22 01:51:08;;;;;;;42.35;19.73;;;-4.40;99.90;;;;;;5049300;28;20065;-73
2021/12/22 01:53:46;;;;;;;39.42;17.88;;;-4.40;99.90;;;;;;5050511;28;20029;-73
2021/12/22 01:58:44;;;;;;;38.42;18.70;;;-4.30;99.90;;;;;;5052446;28;20031;-73
2021/12/22 02:01:11;;;;;;;41.55;20.88;;;-4.40;99.90;;;;;;5053871;28;20478;-74
2021/12/22 02:03:39;;;;;;;35.60;17.88;;;-4.40;99.90;;;;;;5058461;28;20025;-73
2021/12/22 02:06:06;;;;;;;38.45;18.40;;;-4.40;99.90;;;;;;5057109;28;20025;-74
2021/12/22 02:08:33;;;;;;;41.17;18.80;;;-4.40;99.90;;;;;;5051357;28;20036;-74
2021/12/22 02:10:59;;;;;;;35.40;16.98;;;-4.50;99.90;;;;;;5054921;28;20044;-73
2021/12/22 02:13:30;;;;;;;36.00;16.75;;;-4.50;99.90;;;;;;5044286;28;20037;-73
2021/12/22 02:16:06;;;;;;;36.75;16.70;;;-4.50;99.90;;;;;;5043450;28;20048;-73
2021/12/22 02:18:36;;;;;;;36.40;15.45;;;-4.50;99.90;;;;;;5052878;28;20025;-74
2021/12/22 02:21:06;;;;;;;31.98;16.13;;;-4.50;99.90;;;;;;5051138;28;20056;-73
2021/12/22 02:23:32;;;;;;;35.05;15.98;;;-4.50;99.90;;;;;;5051834;28;20048;-72
2021/12/22 02:26:06;;;;;;;35.22;16.90;;;-4.60;99.90;;;;;;5052947;28;20048;-72
2021/12/22 02:28:35;;;;;;;36.58;17.73;;;-4.60;99.90;;;;;;5051389;28;20479;-72
2021/12/22 02:31:04;;;;;;;38.17;17.42;;;-4.70;99.90;;;;;;5053044;28;20071;-73
2021/12/22 02:38:43;;;;;;;40.72;18.35;;;-4.70;99.90;;;;;;5052755;28;20025;-72
2021/12/22 02:41:14;;;;;;;37.90;17.13;;;-4.80;99.90;;;;;;5052736;28;20029;-74
2021/12/22 02:43:50;;;;;;;35.55;17.83;;;-4.80;99.90;;;;;;5050517;28;20017;-74
2021/12/22 02:46:19;;;;;;;39.10;17.73;;;-4.80;99.90;;;;;;5050918;28;20114;-74
2021/12/22 02:48:46;;;;;;;40.92;19.15;;;-4.80;99.90;;;;;;5050476;28;20020;-73
2021/12/22 02:51:12;;;;;;;40.00;17.35;;;-4.80;99.90;;;;;;5050148;28;20025;-73
2021/12/22 02:56:30;;;;;;;38.28;17.27;;;-4.90;99.90;;;;;;5043818;28;20024;-74
2021/12/22 03:04:04;;;;;;;34.90;15.13;;;-4.80;99.90;;;;;;5044790;28;20029;-73
2021/12/22 03:06:37;;;;;;;37.47;17.83;;;-4.70;99.90;;;;;;5049005;28;20078;-72
2021/12/22 03:09:15;;;;;;;35.38;16.92;;;-4.70;99.90;;;;;;5059069;28;20390;-72
2021/12/22 03:11:41;;;;;;;34.80;15.30;;;-4.70;99.90;;;;;;5046294;28;20123;-73
2021/12/22 03:14:07;;;;;;;34.58;16.38;;;-4.70;99.90;;;;;;5041784;28;20107;-72
2021/12/22 03:16:32;;;;;;;33.58;15.73;;;-4.80;99.90;;;;;;5051867;28;20064;-72
2021/12/22 03:18:58;;;;;;;39.38;17.75;;;-4.80;99.90;;;;;;5044649;28;20033;-73
2021/12/22 03:21:24;;;;;;;39.97;18.02;;;-4.80;99.90;;;;;;5053674;28;20039;-73
2021/12/22 03:23:52;;;;;;;36.10;17.25;;;-4.70;99.90;;;;;;5058688;28;20028;-73
2021/12/22 03:26:20;;;;;;;36.55;16.17;;;-4.70;99.90;;;;;;5065730;28;20417;-72
2021/12/22 03:28:46;;;;;;;35.22;15.85;;;-4.80;99.90;;;;;;5051170;28;20099;-73
2021/12/22 03:31:12;;;;;;;32.38;15.88;;;-4.80;99.90;;;;;;5038259;28;20034;-73
2021/12/22 03:33:38;;;;;;;36.85;15.90;;;-4.90;99.90;;;;;;5044251;28;20071;-73
2021/12/22 03:36:04;;;;;;;36.97;17.52;;;-4.90;99.90;;;;;;5047628;28;20028;-74
2021/12/22 03:38:32;;;;;;;29.42;15.82;;;-4.90;99.90;;;;;;5041675;28;20371;-73
2021/12/22 03:40:58;;;;;;;29.20;15.38;;;-5.00;99.90;;;;;;5043380;28;20382;-73
2021/12/22 03:43:26;;;;;;;32.25;15.75;;;-5.10;99.90;;;;;;5046636;28;20401;-73
2021/12/22 03:45:55;;;;;;;31.20;15.40;;;-5.10;99.90;;;;;;5044885;28;20386;-73
2021/12/22 03:48:22;;;;;;;34.05;14.95;;;-5.20;99.90;;;;;;5046033;28;20056;-73
2021/12/22 03:50:51;;;;;;;34.58;16.35;;;-5.20;99.90;;;;;;5038314;28;20040;-73
2021/12/22 03:53:20;;;;;;;34.42;16.73;;;-5.20;99.90;;;;;;5040347;28;20029;-72
2021/12/22 03:55:49;;;;;;;35.45;15.50;;;-5.30;99.90;;;;;;5044908;28;20032;-73
2021/12/22 03:58:14;;;;;;;37.45;16.25;;;-5.20;99.90;;;;;;5047055;28;20056;-73
2021/12/22 04:00:41;;;;;;;34.70;16.20;;;-5.20;99.90;;;;;;5038262;28;20049;-73
2021/12/22 04:03:16;;;;;;;36.35;15.45;;;-5.20;99.90;;;;;;5039542;28;20114;-73
2021/12/22 04:05:46;;;;;;;38.88;16.45;;;-5.30;99.90;;;;;;5039543;28;20389;-73
2021/12/22 04:08:13;;;;;;;34.47;16.23;;;-5.30;99.90;;;;;;5043430;28;20052;-73
2021/12/22 04:10:40;;;;;;;33.13;14.60;;;-5.30;99.90;;;;;;5041443;28;20025;-74
2021/12/22 04:13:11;;;;;;;28.35;14.68;;;-5.30;99.90;;;;;;5038595;28;20429;-73
2021/12/22 04:15:37;;;;;;;33.55;15.38;;;-5.30;99.90;;;;;;5041127;28;20129;-74
2021/12/22 04:18:03;;;;;;;30.38;14.45;;;-5.30;99.90;;;;;;5042567;28;20053;-73
2021/12/22 04:20:30;;;;;;;34.33;14.88;;;-5.30;99.90;;;;;;5040173;28;20329;-74
2021/12/22 04:22:56;;;;;;;35.45;16.00;;;-5.30;99.90;;;;;;5061367;28;20494;-73
2021/12/22 04:25:25;;;;;;;37.03;17.35;;;-5.30;99.90;;;;;;5037008;28;20037;-74
2021/12/22 04:27:55;;;;;;;31.00;15.00;;;-5.30;99.90;;;;;;5045844;28;20163;-74
2021/12/22 04:30:21;;;;;;;35.60;15.90;;;-5.40;99.90;;;;;;5041864;28;20026;-73
2021/12/22 04:32:52;;;;;;;28.73;14.77;;;-5.40;99.90;;;;;;5043450;28;20040;-73
2021/12/22 04:35:18;;;;;;;31.85;14.82;;;-5.40;99.90;;;;;;5047328;28;20478;-74
2021/12/22 04:37:44;;;;;;;38.47;16.15;;;-5.40;99.90;;;;;;5043997;28;20612;-73
2021/12/22 04:40:10;;;;;;;35.40;16.13;;;-5.40;99.90;;;;;;5039201;28;20096;-74
2021/12/22 04:42:36;;;;;;;41.05;16.27;;;-5.40;99.90;;;;;;5044792;28;20101;-73
2021/12/22 04:45:06;;;;;;;34.50;15.02;;;-5.40;99.90;;;;;;5045925;28;20492;-74
2021/12/22 04:47:33;;;;;;;35.00;15.57;;;-5.40;99.90;;;;;;5047910;28;20030;-74
2021/12/22 04:50:13;;;;;;;34.92;14.93;;;-5.40;99.90;;;;;;5045109;28;20103;-73
2021/12/22 04:53:27;;;;;;;34.50;14.73;;;-5.40;99.90;;;;;;5045914;28;20122;-73
2021/12/22 04:55:26;;;;;;;32.80;15.38;;;-5.50;99.90;;;;;;5035252;28;20120;-73
2021/12/22 04:57:57;;;;;;;38.67;16.10;;;-5.50;99.90;;;;;;5047668;28;20077;-73
2021/12/22 05:00:26;;;;;;;42.72;17.75;;;-5.50;99.90;;;;;;5042867;28;20446;-74
2021/12/22 05:02:53;;;;;;;36.08;17.48;;;-5.40;99.90;;;;;;5082566;22;20433;-76
2021/12/22 05:05:19;;;;;;;41.97;18.17;;;-5.40;99.90;;;;;;5045787;28;20029;-76
2021/12/22 05:07:47;;;;;;;34.67;15.57;;;-5.40;99.90;;;;;;5032739;28;20496;-76
2021/12/22 05:10:14;;;;;;;39.67;17.38;;;-5.40;99.90;;;;;;5057251;28;20484;-75
2021/12/22 05:12:40;;;;;;;37.53;17.23;;;-5.50;99.90;;;;;;5065791;28;20020;-75
2021/12/22 05:15:06;;;;;;;39.25;17.77;;;-5.40;99.90;;;;;;5065714;28;20455;-75
2021/12/22 05:20:10;;;;;;;40.53;17.35;;;-5.40;99.90;;;;;;5064631;28;20028;-76
2021/12/22 05:22:36;;;;;;;36.00;15.23;;;-5.40;99.90;;;;;;5064350;28;20143;-76
2021/12/22 05:25:04;;;;;;;36.03;15.13;;;-5.40;99.90;;;;;;5066518;28;20108;-75
2021/12/22 05:27:30;;;;;;;39.45;17.27;;;-5.40;99.90;;;;;;5045584;28;20484;-76
2021/12/22 05:29:57;;;;;;;32.08;13.88;;;-5.50;99.90;;;;;;5061627;28;20031;-76
2021/12/22 05:32:28;;;;;;;33.47;16.13;;;-5.50;99.90;;;;;;5060777;28;20038;-77
2021/12/22 05:34:54;;;;;;;36.47;15.75;;;-5.60;99.90;;;;;;5050099;28;20034;-76
2021/12/22 05:37:20;;;;;;;33.90;15.93;;;-5.60;99.90;;;;;;5066129;28;20408;-75
2021/12/22 05:39:45;;;;;;;35.78;15.00;;;-5.60;99.90;;;;;;5065237;28;20032;-76
2021/12/22 05:42:11;;;;;;;33.20;15.15;;;-5.60;99.90;;;;;;5067001;28;20047;-76
2021/12/22 05:44:37;;;;;;;33.30;15.55;;;-5.60;99.90;;;;;;5064468;28;20032;-76
2021/12/22 05:47:03;;;;;;;37.65;17.38;;;-5.70;99.90;;;;;;5053119;28;20031;-77
2021/12/22 05:49:28;;;;;;;41.25;17.48;;;-5.50;99.90;;;;;;5046692;28;20035;-76
2021/12/22 05:51:54;;;;;;;34.55;15.63;;;-5.30;99.90;;;;;;5060670;28;20028;-77
2021/12/22 05:54:20;;;;;;;36.60;16.52;;;-5.20;99.90;;;;;;5050040;28;20029;-76
2021/12/22 05:56:45;;;;;;;44.45;19.23;;;-5.10;99.90;;;;;;5045840;28;20028;-76
2021/12/22 05:59:11;;;;;;;55.00;23.15;;;-5.10;99.90;;;;;;5055099;28;20021;-76
2021/12/22 06:01:37;;;;;;;52.45;20.85;;;-5.10;99.90;;;;;;5063321;28;20028;-75
2021/12/22 06:04:03;;;;;;;45.92;21.45;;;-5.10;99.90;;;;;;5053984;28;20033;-76
2021/12/22 06:06:30;;;;;;;43.83;20.88;;;-5.00;99.90;;;;;;5041230;28;20111;-75
2021/12/22 06:08:56;;;;;;;34.90;17.60;;;-5.10;99.90;;;;;;5060075;28;20036;-75
2021/12/22 06:11:21;;;;;;;36.53;17.15;;;-5.10;99.90;;;;;;5064936;28;20450;-75
2021/12/22 06:13:47;;;;;;;33.67;16.45;;;-5.10;99.90;;;;;;5058139;28;20044;-75
2021/12/22 06:16:13;;;;;;;33.20;16.00;;;-5.20;99.90;;;;;;5061200;28;20024;-76
2021/12/22 06:18:43;;;;;;;34.85;16.25;;;-5.20;99.90;;;;;;5063151;28;20299;-76
2021/12/22 06:21:10;;;;;;;35.55;16.58;;;-5.20;99.90;;;;;;5064557;28;20012;-76
2021/12/22 06:23:36;;;;;;;34.95;17.27;;;-5.30;99.90;;;;;;5062653;28;20027;-76
2021/12/22 06:26:02;;;;;;;33.08;16.88;;;-5.30;99.90;;;;;;5062387;28;20071;-75
2021/12/22 06:28:28;;;;;;;39.42;18.00;;;-5.30;99.90;;;;;;5030259;28;20017;-76
2021/12/22 06:30:54;;;;;;;37.92;17.25;;;-5.30;99.90;;;;;;5043717;28;20016;-76
2021/12/22 06:33:19;;;;;;;31.38;15.20;;;-5.50;99.90;;;;;;5063458;28;20048;-76
2021/12/22 06:35:49;;;;;;;38.88;16.88;;;-5.50;99.90;;;;;;5047747;28;20036;-76
2021/12/22 06:38:16;;;;;;;35.30;16.42;;;-5.60;99.90;;;;;;5053444;28;20035;-76
2021/12/22 06:40:42;;;;;;;34.58;16.25;;;-5.60;99.90;;;;;;5056676;28;20095;-75
2021/12/22 06:43:08;;;;;;;37.22;17.63;;;-5.60;99.90;;;;;;5061158;28;20429;-76
2021/12/22 06:45:34;;;;;;;39.03;18.05;;;-5.60;99.90;;;;;;5062447;28;20025;-76
2021/12/22 06:48:00;;;;;;;37.15;17.45;;;-5.60;99.90;;;;;;5053224;28;20036;-76
2021/12/22 06:50:26;;;;;;;35.10;16.35;;;-5.70;99.90;;;;;;5061672;28;20100;-76
2021/12/22 06:52:52;;;;;;;30.63;14.30;;;-5.70;99.90;;;;;;5061444;28;20488;-76
2021/12/22 06:55:17;;;;;;;31.63;15.77;;;-5.80;99.90;;;;;;5042177;28;20035;-76
2021/12/22 06:57:43;;;;;;;33.55;16.52;;;-5.80;99.90;;;;;;5044175;28;20090;-76
2021/12/22 07:00:11;;;;;;;32.50;14.23;;;-5.80;99.90;;;;;;5061476;28;20024;-76
2021/12/22 07:02:38;;;;;;;32.47;14.82;;;-5.80;99.90;;;;;;5058724;28;20039;-76
2021/12/22 07:05:06;;;;;;;40.08;16.38;;;-5.90;99.90;;;;;;5056667;28;20028;-76
2021/12/22 07:07:32;;;;;;;38.97;17.10;;;-5.90;99.90;;;;;;5064538;28;20024;-76
2021/12/22 07:10:01;;;;;;;32.33;16.15;;;-5.80;99.90;;;;;;5043564;28;20043;-76
2021/12/22 07:12:27;;;;;;;31.58;16.55;;;-5.80;99.90;;;;;;5064699;28;20536;-75
2021/12/22 07:14:52;;;;;;;37.25;16.25;;;-5.80;99.90;;;;;;5060365;28;20099;-76
2021/12/22 07:17:18;;;;;;;32.55;16.23;;;-5.80;99.90;;;;;;5027457;28;20037;-76
2021/12/22 07:19:44;;;;;;;36.85;16.85;;;-5.80;99.90;;;;;;5021780;28;20116;-76
2021/12/22 07:22:09;;;;;;;31.73;15.13;;;-5.80;99.90;;;;;;5019415;28;20018;-75
2021/12/22 07:24:35;;;;;;;31.25;16.58;;;-5.80;99.90;;;;;;5026374;28;20037;-76
2021/12/22 07:27:01;;;;;;;32.08;14.98;;;-5.80;99.90;;;;;;5022169;28;20537;-76
2021/12/22 07:29:27;;;;;;;38.10;15.00;;;-5.80;99.90;;;;;;5023733;28;20036;-75
2021/12/22 07:31:52;;;;;;;35.45;15.07;;;-5.80;99.90;;;;;;5009789;28;20032;-76
2021/12/22 07:34:33;;;;;;;37.38;16.40;;;-5.80;99.90;;;;;;5024986;28;20417;-76
2021/12/22 07:37:27;;;;;;;36.70;16.23;;;-5.80;99.90;;;;;;5004045;28;20053;-76
2021/12/22 07:39:54;;;;;;;35.58;16.80;;;-5.80;99.90;;;;;;5026773;28;20056;-76
2021/12/22 07:42:19;;;;;;;31.38;14.85;;;-5.80;99.90;;;;;;5029771;28;20025;-76
2021/12/22 07:44:45;;;;;;;38.45;17.33;;;-5.80;99.90;;;;;;5027217;28;20029;-76
2021/12/22 07:47:11;;;;;;;38.28;17.23;;;-5.70;99.90;;;;;;5023619;28;20036;-76
2021/12/22 07:49:37;;;;;;;46.75;16.83;;;-5.70;99.90;;;;;;5025355;28;20033;-75
2021/12/22 07:52:03;;;;;;;33.13;16.50;;;-5.70;99.90;;;;;;5022792;28;20037;-76
2021/12/22 07:54:28;;;;;;;36.42;16.05;;;-5.60;99.90;;;;;;5027897;28;20021;-76
2021/12/22 07:56:54;;;;;;;37.22;16.05;;;-5.60;99.90;;;;;;5022481;28;20030;-75
2021/12/22 07:59:20;;;;;;;47.47;20.95;;;-5.50;99.90;;;;;;5023112;28;20381;-76
2021/12/22 08:01:45;;;;;;;33.47;15.30;;;-5.50;99.90;;;;;;5025148;28;20032;-76
2021/12/22 08:04:11;;;;;;;39.88;17.98;;;-5.50;99.90;;;;;;5025706;28;20037;-76
2021/12/22 08:06:36;;;;;;;37.33;16.80;;;-5.50;99.90;;;;;;5012216;28;20053;-76
2021/12/22 08:09:03;;;;;;;34.65;16.27;;;-5.50;99.90;;;;;;5031747;28;20026;-76
2021/12/22 08:11:29;;;;;;;42.42;18.70;;;-5.50;99.90;;;;;;5023826;28;20022;-78
2021/12/22 08:13:55;;;;;;;44.38;20.77;;;-5.50;99.90;;;;;;5010023;28;20085;-75
2021/12/22 08:16:20;;;;;;;36.38;17.20;;;-5.50;99.90;;;;;;5027193;28;20028;-75
2021/12/22 08:18:46;;;;;;;40.55;17.92;;;-5.40;99.90;;;;;;5030653;28;20029;-76
2021/12/22 08:21:12;;;;;;;38.30;17.75;;;-5.40;99.90;;;;;;5029585;28;20028;-76
2021/12/22 08:23:38;;;;;;;36.88;16.50;;;-5.40;99.90;;;;;;5046591;28;20026;-75
2021/12/22 08:26:04;;;;;;;36.58;16.92;;;-5.40;99.90;;;;;;5038015;28;20732;-76
2021/12/22 08:28:29;;;;;;;37.20;17.48;;;-5.30;99.90;;;;;;5030230;28;20032;-76
2021/12/22 08:30:55;;;;;;;39.65;17.30;;;-5.20;99.90;;;;;;5030692;28;20032;-76
2021/12/22 08:33:24;;;;;;;37.75;17.20;;;-5.20;99.90;;;;;;5019465;28;20037;-76
2021/12/22 08:38:50;;;;;;;39.13;17.02;;;-5.10;99.90;;;;;;5028913;28;20188;-75
2021/12/22 08:41:37;;;;;;;38.47;18.67;;;-5.00;99.90;;;;;;5017549;28;21329;-76
2021/12/22 08:44:08;;;;;;;45.03;18.00;;;-5.00;99.90;;;;;;5016429;28;20064;-76
2021/12/22 08:46:36;;;;;;;41.63;19.08;;;-5.00;99.90;;;;;;5033605;28;20105;-76
2021/12/22 08:49:03;;;;;;;53.88;22.10;;;-4.90;99.90;;;;;;5012623;28;20025;-76
2021/12/22 08:51:29;;;;;;;57.72;22.15;;;-4.90;99.90;;;;;;5031937;28;20017;-76
2021/12/22 08:53:55;;;;;;;41.83;19.00;;;-4.80;99.90;;;;;;5027923;28;20128;-76
2021/12/22 08:56:21;;;;;;;41.60;18.42;;;-4.70;99.90;;;;;;5028513;28;20456;-76
2021/12/22 08:58:47;;;;;;;42.28;18.85;;;-4.60;99.90;;;;;;5029706;28;20104;-76
2021/12/22 09:01:13;;;;;;;39.85;17.52;;;-4.50;99.90;;;;;;5028787;28;20116;-76
2021/12/22 09:03:39;;;;;;;37.38;17.67;;;-4.40;99.90;;;;;;5029737;28;20053;-76
2021/12/22 09:06:05;;;;;;;36.10;17.23;;;-4.40;99.90;;;;;;5028926;28;20063;-75
2021/12/22 09:08:31;;;;;;;44.35;19.00;;;-4.30;99.90;;;;;;5025891;28;20068;-76
2021/12/22 09:10:57;;;;;;;39.17;18.90;;;-4.30;99.90;;;;;;5026211;28;20037;-75
2021/12/22 09:13:23;;;;;;;38.35;18.20;;;-4.20;99.90;;;;;;5027855;28;20017;-76
2021/12/22 09:15:49;;;;;;;42.17;18.38;;;-4.20;99.90;;;;;;5027663;28;20032;-76
2021/12/22 09:18:15;;;;;;;41.80;17.50;;;-4.10;99.90;;;;;;5026369;28;20022;-75
2021/12/22 09:20:41;;;;;;;38.20;18.40;;;-4.10;99.90;;;;;;5025323;28;20018;-76
2021/12/22 09:23:07;;;;;;;39.90;18.52;;;-4.00;99.90;;;;;;5027110;28;20041;-75
2021/12/22 09:25:33;;;;;;;37.92;17.02;;;-4.00;99.90;;;;;;5025353;28;20029;-76
2021/12/22 09:28:00;;;;;;;32.70;17.20;;;-3.90;99.90;;;;;;5004382;28;20033;-76
2021/12/22 09:30:27;;;;;;;38.35;17.85;;;-3.90;99.90;;;;;;5024661;28;20030;-76
2021/12/22 09:32:53;;;;;;;39.47;18.20;;;-3.80;99.90;;;;;;5013154;28;20034;-75
2021/12/22 09:35:19;;;;;;;38.95;17.08;;;-3.80;99.90;;;;;;5033894;28;20029;-76
2021/12/22 09:37:45;;;;;;;36.45;16.45;;;-3.70;99.90;;;;;;5025942;28;20151;-76
2021/12/22 09:40:11;;;;;;;35.88;16.67;;;-3.70;99.90;;;;;;5022964;28;20029;-76
2021/12/22 09:42:37;;;;;;;37.55;16.77;;;-3.60;99.90;;;;;;5032683;28;20408;-76
2021/12/22 09:45:04;;;;;;;41.22;17.98;;;-3.60;99.90;;;;;;5038274;28;20492;-76
2021/12/22 09:47:38;;;;;;;37.00;15.90;;;-3.50;99.90;;;;;;5026868;28;20030;-76
2021/12/22 09:52:30;;;;;;;34.40;16.88;;;-3.40;99.90;;;;;;5025379;28;20017;-76
2021/12/22 09:54:59;;;;;;;37.40;17.00;;;-3.30;99.90;;;;;;5004407;28;20036;-76
2021/12/22 09:57:26;;;;;;;52.33;18.25;;;-3.30;99.90;;;;;;5009559;28;20029;-75
2021/12/22 09:59:54;;;;;;;34.85;15.82;;;-3.20;99.90;;;;;;5005003;28;20398;-76
2021/12/22 10:02:25;;;;;;;36.65;16.38;;;-3.20;99.90;;;;;;5021956;28;20053;-76
2021/12/22 10:04:51;;;;;;;36.65;17.58;;;-3.10;99.90;;;;;;5029062;28;20470;-76
2021/12/22 10:07:20;;;;;;;38.42;19.15;;;-3.00;99.90;;;;;;5031033;28;20045;-76
2021/12/22 10:09:48;;;;;;;40.38;17.85;;;-3.00;99.90;;;;;;5019926;28;20088;-76
2021/12/22 10:12:23;;;;;;;37.50;18.20;;;-2.90;99.90;;;;;;5024574;28;20033;-76
2021/12/22 10:14:55;;;;;;;41.75;19.77;;;-2.90;99.90;;;;;;5032352;28;20028;-76
2021/12/22 10:17:41;;;;;;;38.50;17.50;;;-2.80;99.90;;;;;;5009413;28;20053;-76
2021/12/22 10:20:17;;;;;;;42.15;19.92;;;-2.90;99.90;;;;;;5023141;28;20497;-76
2021/12/22 10:22:48;;;;;;;37.72;18.88;;;-2.80;99.90;;;;;;5008691;28;20038;-75
2021/12/22 10:25:26;;;;;;;40.25;19.27;;;-2.70;99.90;;;;;;5027967;28;20036;-75
2021/12/22 10:28:07;;;;;;;42.63;19.73;;;-2.70;99.90;;;;;;5026773;28;20017;-75
2021/12/22 10:30:39;;;;;;;45.13;20.05;;;-2.60;99.90;;;;;;5028491;28;20509;-75
2021/12/22 10:33:16;;;;;;;36.85;17.55;;;-2.50;99.90;;;;;;5015878;28;20028;-76
2021/12/22 10:35:48;;;;;;;36.33;17.42;;;-2.50;99.90;;;;;;5028014;28;21034;-75
2021/12/22 10:38:22;;;;;;;38.35;18.00;;;-2.40;99.90;;;;;;5021081;28;20048;-76
2021/12/22 10:41:15;;;;;;;38.67;16.65;;;-2.30;99.90;;;;;;5020067;28;20488;-76
2021/12/22 10:43:44;;;;;;;36.20;16.23;;;-2.30;99.90;;;;;;5023929;28;20038;-76
2021/12/22 10:46:16;;;;;;;36.03;15.82;;;-2.20;99.90;;;;;;5013525;28;20017;-76
2021/12/22 10:51:32;;;;;;;33.67;16.20;;;-2.20;99.90;;;;;;5027602;28;20096;-75
2021/12/22 10:54:00;;;;;;;36.33;17.02;;;-2.10;99.90;;;;;;5027347;28;20103;-76
2021/12/22 10:56:33;;;;;;;33.20;16.23;;;-2.00;99.90;;;;;;5029723;28;20048;-76
2021/12/22 10:59:09;;;;;;;37.05;17.33;;;-2.00;99.90;;;;;;5025926;28;20025;-76
2021/12/22 11:01:48;;;;;;;31.60;16.45;;;-1.90;99.90;;;;;;5022083;28;20029;-76
2021/12/22 11:04:22;;;;;;;38.58;18.50;;;-1.90;99.90;;;;;;4995216;28;20065;-75
2021/12/22 11:06:50;;;;;;;43.38;18.45;;;-1.80;99.90;;;;;;5031395;28;20497;-76
2021/12/22 11:09:17;;;;;;;38.15;16.83;;;-1.80;99.90;;;;;;5015148;28;20033;-76
2021/12/22 11:11:49;;;;;;;34.45;15.75;;;-1.70;99.90;;;;;;5032604;28;20053;-76
2021/12/22 11:14:19;;;;;;;33.47;17.23;;;-1.60;99.90;;;;;;5028779;28;20033;-75
2021/12/22 11:17:13;;;;;;;32.50;15.82;;;-1.50;99.90;;;;;;5023873;28;20082;-76
2021/12/22 11:19:49;;;;;;;31.35;15.77;;;-1.50;99.90;;;;;;5016406;28;20076;-76
2021/12/22 11:22:16;;;;;;;33.70;16.27;;;-1.40;99.90;;;;;;5026624;28;20053;-75
2021/12/22 11:24:51;;;;;;;37.25;17.58;;;-1.30;99.90;;;;;;5002980;28;20037;-76
2021/12/22 11:27:27;;;;;;;32.67;16.05;;;-1.20;99.90;;;;;;5014256;28;20365;-76
2021/12/22 11:29:56;;;;;;;34.47;16.65;;;-1.10;99.90;;;;;;5018109;28;20029;-76
2021/12/22 11:32:24;;;;;;;36.75;18.65;;;-1.00;99.90;;;;;;5026798;28;20029;-75
2021/12/22 11:34:53;;;;;;;33.10;16.30;;;-0.90;99.90;;;;;;5020184;28;20057;-76
2021/12/22 11:37:21;;;;;;;39.53;16.08;;;-0.90;99.90;;;;;;5021136;28;20037;-75
2021/12/22 11:39:48;;;;;;;33.97;15.93;;;-0.80;99.90;;;;;;4997921;28;20033;-76
2021/12/22 11:42:14;;;;;;;30.35;15.05;;;-0.80;99.90;;;;;;5026298;28;20025;-76
2021/12/22 11:44:44;;;;;;;30.23;14.65;;;-0.90;99.90;;;;;;5027554;28;20020;-76
2021/12/22 11:47:13;;;;;;;31.00;14.73;;;-0.80;99.90;;;;;;5025280;28;20537;-75
2021/12/22 11:49:59;;;;;;;30.73;14.93;;;-0.90;99.90;;;;;;5030233;28;20432;-76
2021/12/22 11:52:34;;;;;;;34.35;16.95;;;-0.90;99.90;;;;;;5037304;28;20436;-76
2021/12/22 11:55:23;;;;;;;36.97;16.70;;;-0.90;99.90;;;;;;5018038;28;22744;-76
2021/12/22 11:58:11;;;;;;;32.08;14.70;;;-0.90;99.90;;;;;;5034396;28;20105;-76
2021/12/22 12:00:38;;;;;;;33.72;15.30;;;-0.90;99.90;;;;;;5014789;28;20034;-76
2021/12/22 12:03:23;;;;;;;32.05;15.48;;;-0.90;99.90;;;;;;5024720;28;20037;-76
2021/12/22 12:06:06;;;;;;;33.42;14.82;;;-0.80;99.90;;;;;;5021626;28;20393;-76
2021/12/22 12:08:40;;;;;;;31.83;15.90;;;-0.80;99.90;;;;;;5026944;28;20048;-77
2021/12/22 12:11:09;;;;;;;30.98;15.20;;;-0.80;99.90;;;;;;5025999;28;20086;-76
2021/12/22 12:13:43;;;;;;;31.70;15.80;;;-0.80;99.90;;;;;;5031264;28;20075;-76
2021/12/22 12:22:09;;;;;;;29.42;15.27;;;-0.70;99.90;;;;;;5028036;28;20102;-76
2021/12/22 12:25:06;;;;;;;34.90;15.63;;;-0.70;99.90;;;;;;5023342;28;20028;-76
2021/12/22 12:27:53;;;;;;;30.33;15.07;;;-0.50;99.90;;;;;;5006283;28;20029;-76
2021/12/22 12:30:48;;;;;;;35.63;15.25;;;-0.50;99.90;;;;;;5029930;28;20385;-76
2021/12/22 12:33:28;;;;;;;29.02;14.15;;;-0.50;99.90;;;;;;5016245;28;20496;-76
2021/12/22 12:36:05;;;;;;;29.45;14.40;;;-0.50;99.90;;;;;;5033579;28;20022;-77
2021/12/22 12:38:39;;;;;;;31.83;14.75;;;-0.50;99.90;;;;;;5025323;28;20017;-76
2021/12/22 12:41:11;;;;;;;33.08;15.13;;;-0.60;99.90;;;;;;5028141;28;20021;-76
2021/12/22 12:43:47;;;;;;;34.22;16.58;;;-0.60;99.90;;;;;;5031571;28;20366;-76
2021/12/22 12:46:19;;;;;;;33.05;16.05;;;-0.60;99.90;;;;;;5033437;28;20107;-76
2021/12/22 12:48:48;;;;;;;29.45;15.30;;;-0.50;99.90;;;;;;5031476;28;20028;-76
2021/12/22 12:51:15;;;;;;;35.33;16.50;;;-0.60;99.90;;;;;;5028125;28;20105;-76
2021/12/22 12:53:47;;;;;;;36.42;17.40;;;-0.60;99.90;;;;;;5026637;28;20055;-76
2021/12/22 12:56:14;;;;;;;36.30;16.73;;;-0.50;99.90;;;;;;5032025;28;20032;-76
2021/12/22 12:59:01;;;;;;;34.83;17.08;;;-0.50;99.90;;;;;;5035137;28;20025;-77
2021/12/22 13:01:45;;;;;;;30.63;14.77;;;-0.50;99.90;;;;;;5026265;28;20481;-76
2021/12/22 13:04:23;;;;;;;;;;;-0.50;99.90;;;;;;5029183;28;20079;-76
2021/12/22 13:07:05;;;;;;;29.33;14.75;;;-0.40;99.90;;;;;;5034733;28;20002;-76
2021/12/22 13:09:45;;;;;;;36.42;15.60;;;-0.40;99.90;;;;;;5009116;28;20076;-77
2021/12/22 13:12:35;;;;;;;35.13;15.57;;;-0.40;99.90;;;;;;5016732;28;20033;-77
2021/12/22 13:17:55;;;;;;;37.55;15.93;;;-0.40;99.90;;;;;;5031307;28;20113;-76
2021/12/22 13:20:43;;;;;;;31.27;15.52;;;-0.40;99.90;;;;;;5032512;28;20331;-77
2021/12/22 13:23:16;;;;;;;33.20;15.68;;;-0.40;99.90;;;;;;5009813;28;20018;-76